Time;durP1;ratioP1;P1;durP2;ratioP2;P2;SDS_P1;SDS_P2;PMS_P1;PMS_P2;Temp;Humidity;BMP_temperature;BMP_pressure;BME280_temperature;BME280_humidity;BME280_pressure;Samples;Min_cycle;Max_cycle;Signal;HPM_P1;HPM_P2
2021/08/28 00:00:50;;;;;;;3.30;1.48;;;;;;;;;;4975101;28;20110;-77
2021/08/28 00:03:16;;;;;;;4.10;1.15;;;;;;;;;;4975466;28;20023;-76
2021/08/28 00:05:42;;;;;;;3.55;1.60;;;;;;;;;;4975198;28;20461;-77
2021/08/28 00:08:08;;;;;;;4.05;1.67;;;;;;;;;;4957403;28;20447;-75
2021/08/28 00:10:34;;;;;;;5.05;1.33;;;;;;;;;;4975139;28;20038;-77
2021/08/28 00:13:00;;;;;;;3.80;1.63;;;;;;;;;;4975738;28;20058;-77
2021/08/28 00:15:26;;;;;;;5.47;1.30;;;;;;;;;;4975005;28;20140;-77
2021/08/28 00:17:52;;;;;;;5.70;1.38;;;;;;;;;;4957515;28;20581;-77
2021/08/28 00:20:19;;;;;;;4.60;1.70;;;;;;;;;;4974229;28;20039;-78
2021/08/28 00:22:45;;;;;;;3.35;1.25;;;;;;;;;;4974841;28;20023;-74
2021/08/28 00:25:11;;;;;;;5.80;1.35;;;;;;;;;;4973591;28;20086;-76
2021/08/28 00:27:38;;;;;;;5.43;1.75;;;;;;;;;;4957766;28;20045;-76
2021/08/28 00:30:04;;;;;;;3.63;1.50;;;;;;;;;;4974458;28;20023;-76
2021/08/28 00:32:30;;;;;;;4.18;1.25;;;;;;;;;;4975114;28;20026;-76
2021/08/28 00:34:56;;;;;;;3.95;1.48;;;;;;;;;;4957634;28;20039;-76
2021/08/28 00:37:22;;;;;;;3.60;1.40;;;;;;;;;;4974788;28;20023;-76
2021/08/28 00:39:48;;;;;;;5.03;1.52;;;;;;;;;;4974786;28;20162;-75
2021/08/28 00:42:14;;;;;;;3.53;1.50;;;;;;;;;;4974643;28;20027;-72
2021/08/28 00:44:41;;;;;;;4.20;1.48;;;;;;;;;;4974044;28;20509;-74
2021/08/28 00:47:07;;;;;;;3.33;1.15;;;;;;;;;;4957285;28;20034;-73
2021/08/28 00:49:33;;;;;;;4.28;1.48;;;;;;;;;;4973706;28;20419;-72
2021/08/28 00:52:04;;;;;;;2.53;1.17;;;;;;;;;;4957273;28;20414;-74
2021/08/28 00:54:30;;;;;;;3.63;1.60;;;;;;;;;;4975019;28;20035;-73
2021/08/28 00:56:57;;;;;;;5.50;1.48;;;;;;;;;;4974465;28;20027;-72
2021/08/28 00:59:23;;;;;;;3.15;1.33;;;;;;;;;;4974275;28;20114;-73
2021/08/28 01:01:49;;;;;;;3.15;1.08;;;;;;;;;;4974166;28;20478;-73
2021/08/28 01:04:16;;;;;;;2.88;1.13;;;;;;;;;;4974167;28;20027;-72
2021/08/28 01:07:12;;;;;;;3.20;1.33;;;;;;;;;;4974287;28;20026;-72
2021/08/28 01:09:39;;;;;;;4.63;1.73;;;;;;;;;;4961923;28;20039;-72
2021/08/28 01:12:07;;;;;;;4.65;1.40;;;;;;;;;;4956309;28;20114;-74
2021/08/28 01:14:35;;;;;;;3.88;1.05;;;;;;;;;;4974041;28;20121;-75
2021/08/28 01:17:05;;;;;;;5.20;1.48;;;;;;;;;;4974218;28;20023;-73
2021/08/28 01:19:39;;;;;;;3.53;1.30;;;;;;;;;;4973568;28;20069;-73
2021/08/28 01:22:07;;;;;;;4.85;1.40;;;;;;;;;;4973881;28;20023;-75
2021/08/28 01:24:34;;;;;;;3.85;1.13;;;;;;;;;;4972767;28;20029;-73
2021/08/28 01:27:03;;;;;;;2.20;0.77;;;;;;;;;;4973774;28;20034;-74
2021/08/28 01:29:30;;;;;;;4.72;1.60;;;;;;;;;;4974375;28;20027;-77
2021/08/28 01:31:57;;;;;;;3.42;1.13;;;;;;;;;;4956153;28;20022;-73
2021/08/28 01:34:23;;;;;;;3.47;0.88;;;;;;;;;;4973298;28;20047;-73
2021/08/28 01:36:50;;;;;;;3.60;1.42;;;;;;;;;;4973324;28;20038;-74
2021/08/28 01:39:16;;;;;;;3.58;1.63;;;;;;;;;;4973683;28;20117;-77
2021/08/28 01:41:43;;;;;;;2.58;1.00;;;;;;;;;;4973816;28;20109;-74
2021/08/28 01:44:10;;;;;;;4.45;1.17;;;;;;;;;;4973513;28;20027;-74
2021/08/28 01:46:40;;;;;;;4.47;2.30;;;;;;;;;;4973516;28;20027;-77
2021/08/28 01:49:07;;;;;;;3.65;1.08;;;;;;;;;;4973208;28;20031;-76
2021/08/28 01:51:33;;;;;;;4.13;1.20;;;;;;;;;;4972835;28;20023;-74
2021/08/28 01:53:59;;;;;;;4.63;1.15;;;;;;;;;;4973868;28;20042;-72
2021/08/28 01:56:25;;;;;;;4.57;1.08;;;;;;;;;;4973082;28;20023;-77
2021/08/28 01:58:52;;;;;;;3.15;1.00;;;;;;;;;;4973504;28;20375;-76
2021/08/28 02:01:18;;;;;;;4.95;1.38;;;;;;;;;;4972106;28;20034;-76
2021/08/28 02:03:44;;;;;;;3.75;1.48;;;;;;;;;;4955858;28;20113;-73
2021/08/28 02:06:14;;;;;;;4.63;1.00;;;;;;;;;;4972216;28;20474;-75
2021/08/28 02:08:46;;;;;;;4.10;1.25;;;;;;;;;;4955691;28;20031;-77
2021/08/28 02:11:18;;;;;;;4.50;1.42;;;;;;;;;;4972378;28;20023;-75
2021/08/28 02:13:50;;;;;;;4.35;0.93;;;;;;;;;;4973312;28;20387;-76
2021/08/28 02:16:18;;;;;;;5.15;1.92;;;;;;;;;;4972522;28;20034;-74
2021/08/28 02:18:51;;;;;;;2.67;1.20;;;;;;;;;;4972782;28;20078;-72
2021/08/28 02:21:17;;;;;;;3.60;1.10;;;;;;;;;;4972299;28;20042;-74
2021/08/28 02:23:45;;;;;;;5.80;1.58;;;;;;;;;;4972910;28;20072;-75
2021/08/28 02:26:14;;;;;;;2.05;1.13;;;;;;;;;;4972850;28;20043;-75
2021/08/28 02:28:48;;;;;;;3.67;1.33;;;;;;;;;;4972998;28;20039;-73
2021/08/28 02:31:16;;;;;;;3.05;1.08;;;;;;;;;;4972359;28;20154;-74
2021/08/28 02:33:42;;;;;;;3.95;1.10;;;;;;;;;;4972604;28;20514;-72
2021/08/28 02:36:08;;;;;;;3.63;1.15;;;;;;;;;;4972041;28;20038;-76
2021/08/28 02:38:35;;;;;;;4.70;1.05;;;;;;;;;;4972494;28;20195;-75
2021/08/28 02:41:02;;;;;;;5.55;1.83;;;;;;;;;;4972484;28;20112;-74
2021/08/28 02:43:29;;;;;;;4.20;1.45;;;;;;;;;;4973252;28;20042;-78
2021/08/28 02:45:55;;;;;;;2.80;1.15;;;;;;;;;;4972170;28;20034;-75
2021/08/28 02:48:23;;;;;;;4.63;1.30;;;;;;;;;;4955046;28;20125;-76
2021/08/28 02:50:49;;;;;;;3.45;1.13;;;;;;;;;;4972066;28;20033;-77
2021/08/28 02:53:19;;;;;;;3.78;1.42;;;;;;;;;;4972147;28;20034;-76
2021/08/28 02:55:46;;;;;;;3.38;1.38;;;;;;;;;;4972397;28;20122;-77
2021/08/28 02:58:13;;;;;;;2.88;1.30;;;;;;;;;;4972408;28;20043;-77
2021/08/28 03:00:39;;;;;;;2.25;0.98;;;;;;;;;;4955230;28;20038;-74
2021/08/28 03:03:07;;;;;;;2.63;1.05;;;;;;;;;;4971163;28;20553;-76
2021/08/28 03:05:33;;;;;;;4.25;1.20;;;;;;;;;;4971556;28;20061;-76
2021/08/28 03:07:59;;;;;;;4.75;1.67;;;;;;;;;;4972899;28;20027;-75
2021/08/28 03:10:27;;;;;;;4.13;1.52;;;;;;;;;;4972212;28;20055;-76
2021/08/28 03:12:53;;;;;;;3.67;1.02;;;;;;;;;;4972311;28;20053;-76
2021/08/28 03:15:19;;;;;;;3.25;1.20;;;;;;;;;;4971068;28;20458;-75
2021/08/28 03:17:46;;;;;;;2.83;1.02;;;;;;;;;;4954488;28;20022;-76
2021/08/28 03:20:13;;;;;;;2.25;0.90;;;;;;;;;;4971648;28;20073;-75
2021/08/28 03:22:40;;;;;;;2.47;1.15;;;;;;;;;;4971785;28;20029;-76
2021/08/28 03:25:07;;;;;;;4.90;1.10;;;;;;;;;;4970534;28;20034;-73
2021/08/28 03:27:34;;;;;;;2.70;0.88;;;;;;;;;;4956880;28;20023;-74
2021/08/28 03:30:01;;;;;;;3.40;1.20;;;;;;;;;;4972095;28;20034;-72
2021/08/28 03:32:27;;;;;;;3.20;1.00;;;;;;;;;;4972240;28;20101;-71
2021/08/28 03:34:54;;;;;;;2.03;0.82;;;;;;;;;;4971904;28;20074;-73
2021/08/28 03:37:20;;;;;;;2.85;1.00;;;;;;;;;;4972370;28;20574;-73
2021/08/28 03:39:47;;;;;;;3.53;1.23;;;;;;;;;;4971850;28;20063;-77
2021/08/28 03:42:13;;;;;;;2.90;1.20;;;;;;;;;;4971695;28;20030;-75
2021/08/28 03:44:39;;;;;;;4.70;1.33;;;;;;;;;;4954731;28;20034;-76
2021/08/28 03:47:06;;;;;;;4.40;0.98;;;;;;;;;;4971516;28;20023;-76
2021/08/28 03:49:32;;;;;;;3.20;1.05;;;;;;;;;;4972023;28;20483;-77
2021/08/28 03:51:58;;;;;;;3.50;1.10;;;;;;;;;;4971738;28;20027;-76
2021/08/28 03:54:24;;;;;;;3.70;1.00;;;;;;;;;;4971938;28;20118;-76
2021/08/28 03:56:50;;;;;;;3.90;1.33;;;;;;;;;;4971726;28;20019;-77
2021/08/28 03:59:16;;;;;;;2.88;0.95;;;;;;;;;;4971971;28;20031;-76
2021/08/28 04:01:42;;;;;;;3.20;1.33;;;;;;;;;;4970972;28;20027;-76
2021/08/28 04:04:08;;;;;;;3.05;1.20;;;;;;;;;;4954361;28;20034;-76
2021/08/28 04:06:34;;;;;;;2.05;1.08;;;;;;;;;;4954199;28;20483;-75
2021/08/28 04:09:00;;;;;;;3.80;1.15;;;;;;;;;;4971706;28;20030;-78
2021/08/28 04:11:26;;;;;;;2.50;1.00;;;;;;;;;;4971596;28;20024;-75
2021/08/28 04:13:52;;;;;;;3.20;1.00;;;;;;;;;;4971525;28;20066;-74
2021/08/28 04:16:18;;;;;;;3.28;1.20;;;;;;;;;;4971389;28;20487;-76
2021/08/28 04:18:44;;;;;;;5.20;1.25;;;;;;;;;;4971524;28;20031;-76
2021/08/28 04:21:10;;;;;;;3.65;0.93;;;;;;;;;;4971694;28;20546;-73
2021/08/28 04:23:36;;;;;;;2.05;0.98;;;;;;;;;;4971586;28;20033;-76
2021/08/28 04:26:02;;;;;;;4.00;1.42;;;;;;;;;;4975038;28;20074;-77
2021/08/28 04:28:28;;;;;;;2.60;1.05;;;;;;;;;;4975150;28;20090;-75
2021/08/28 04:30:54;;;;;;;3.60;1.20;;;;;;;;;;4974957;28;20035;-77
2021/08/28 04:33:20;;;;;;;3.20;1.10;;;;;;;;;;4974626;28;20053;-74
2021/08/28 04:35:46;;;;;;;4.03;1.20;;;;;;;;;;4956811;28;20558;-75
2021/08/28 04:38:12;;;;;;;2.88;1.17;;;;;;;;;;4974897;28;20027;-76
2021/08/28 04:40:38;;;;;;;4.20;1.40;;;;;;;;;;4975069;28;20167;-76
2021/08/28 04:43:04;;;;;;;2.40;0.90;;;;;;;;;;4974231;28;20031;-75
2021/08/28 04:45:30;;;;;;;3.30;1.05;;;;;;;;;;4957885;28;20509;-76
2021/08/28 04:47:56;;;;;;;2.22;1.00;;;;;;;;;;4956595;28;20038;-75
2021/08/28 04:50:22;;;;;;;2.95;1.02;;;;;;;;;;4974657;28;20053;-75
2021/08/28 04:52:48;;;;;;;5.65;1.17;;;;;;;;;;4957142;28;20042;-75
2021/08/28 04:55:14;;;;;;;3.08;1.08;;;;;;;;;;4974711;28;20053;-76
2021/08/28 04:57:40;;;;;;;4.10;1.27;;;;;;;;;;4974371;28;20018;-75
2021/08/28 05:00:07;;;;;;;3.38;1.15;;;;;;;;;;4956902;28;20038;-75
2021/08/28 05:02:33;;;;;;;3.55;1.08;;;;;;;;;;4956797;28;20023;-75
2021/08/28 05:04:59;;;;;;;2.58;1.10;;;;;;;;;;4973853;28;20053;-76
2021/08/28 05:07:25;;;;;;;2.67;0.98;;;;;;;;;;4974043;28;20030;-76
2021/08/28 05:09:51;;;;;;;2.97;0.88;;;;;;;;;;4974229;28;20534;-75
2021/08/28 05:12:17;;;;;;;4.13;1.23;;;;;;;;;;4974184;28;20030;-76
2021/08/28 05:14:43;;;;;;;4.85;1.00;;;;;;;;;;4974038;28;20046;-75
2021/08/28 05:17:09;;;;;;;4.18;1.10;;;;;;;;;;4974029;28;20499;-77
2021/08/28 05:19:35;;;;;;;3.03;1.25;;;;;;;;;;4972827;28;20029;-74
2021/08/28 05:22:01;;;;;;;3.78;1.13;;;;;;;;;;4974233;28;20041;-77
2021/08/28 05:24:27;;;;;;;2.85;1.17;;;;;;;;;;4973718;28;20052;-77
2021/08/28 05:26:53;;;;;;;2.33;0.90;;;;;;;;;;4973610;28;20459;-76
2021/08/28 05:29:19;;;;;;;2.35;0.95;;;;;;;;;;4972009;28;20391;-76
2021/08/28 05:31:45;;;;;;;3.03;0.98;;;;;;;;;;4957981;28;20026;-76
2021/08/28 05:34:11;;;;;;;2.05;0.90;;;;;;;;;;4956213;28;20065;-74
2021/08/28 05:36:37;;;;;;;2.90;1.00;;;;;;;;;;4971953;28;20152;-76
2021/08/28 05:39:03;;;;;;;2.03;1.02;;;;;;;;;;4971877;28;20051;-77
2021/08/28 05:41:30;;;;;;;2.88;1.05;;;;;;;;;;4971949;28;20069;-75
2021/08/28 05:43:56;;;;;;;2.08;0.93;;;;;;;;;;4973234;28;20451;-77
2021/08/28 05:46:22;;;;;;;3.55;1.08;;;;;;;;;;4973237;28;20031;-76
2021/08/28 05:48:48;;;;;;;2.15;1.00;;;;;;;;;;4973258;28;20048;-76
2021/08/28 05:51:14;;;;;;;2.78;1.20;;;;;;;;;;4973065;28;20038;-73
2021/08/28 05:53:40;;;;;;;2.28;0.80;;;;;;;;;;4972208;28;20058;-74
2021/08/28 05:56:06;;;;;;;2.28;0.90;;;;;;;;;;4973134;28;20112;-72
2021/08/28 05:58:33;;;;;;;2.95;0.80;;;;;;;;;;4972181;28;20019;-73
2021/08/28 06:00:59;;;;;;;2.38;0.95;;;;;;;;;;4973117;28;20101;-73
2021/08/28 06:03:25;;;;;;;2.70;1.23;;;;;;;;;;4973187;28;20416;-72
2021/08/28 06:05:51;;;;;;;2.58;0.90;;;;;;;;;;4972541;28;20399;-76
2021/08/28 06:08:18;;;;;;;2.08;0.90;;;;;;;;;;4962925;28;20038;-77
2021/08/28 06:10:44;;;;;;;1.90;0.70;;;;;;;;;;4954968;28;20031;-73
2021/08/28 06:13:10;;;;;;;2.28;0.90;;;;;;;;;;4966569;28;20032;-75
2021/08/28 06:15:36;;;;;;;1.77;0.90;;;;;;;;;;4954165;29;20039;-77
2021/08/28 06:18:02;;;;;;;3.03;0.80;;;;;;;;;;4970838;28;20483;-79
2021/08/28 06:20:28;;;;;;;3.20;0.90;;;;;;;;;;4953921;29;20510;-79
2021/08/28 06:22:54;;;;;;;4.40;1.27;;;;;;;;;;4953493;29;20608;-83
2021/08/28 06:25:20;;;;;;;1.33;0.80;;;;;;;;;;4953816;29;20044;-83
2021/08/28 06:27:46;;;;;;;3.08;0.95;;;;;;;;;;4953592;29;20408;-83
2021/08/28 06:30:12;;;;;;;2.53;0.82;;;;;;;;;;4953744;29;20530;-83
2021/08/28 06:32:38;;;;;;;1.83;0.90;;;;;;;;;;4953714;29;20024;-79
2021/08/28 06:35:04;;;;;;;4.30;1.20;;;;;;;;;;4953654;29;20035;-83
2021/08/28 06:37:30;;;;;;;2.03;0.98;;;;;;;;;;4953612;29;20385;-79
2021/08/28 06:39:56;;;;;;;2.45;0.80;;;;;;;;;;4969087;28;20035;-81
2021/08/28 06:42:22;;;;;;;2.60;0.90;;;;;;;;;;4972753;28;20038;-79
2021/08/28 06:44:48;;;;;;;3.28;0.95;;;;;;;;;;4972532;28;20488;-81
2021/08/28 06:47:14;;;;;;;2.67;1.05;;;;;;;;;;4972515;28;20023;-80
2021/08/28 06:49:40;;;;;;;5.18;1.58;;;;;;;;;;4972673;28;20031;-79
2021/08/28 06:52:06;;;;;;;3.15;1.25;;;;;;;;;;4973154;28;20019;-80
2021/08/28 06:54:32;;;;;;;1.63;0.80;;;;;;;;;;4973070;28;20049;-80
2021/08/28 06:56:58;;;;;;;5.95;1.20;;;;;;;;;;4972400;28;20027;-80
2021/08/28 06:59:24;;;;;;;2.55;1.13;;;;;;;;;;4972635;28;20062;-80
2021/08/28 07:01:50;;;;;;;5.47;1.13;;;;;;;;;;4972397;28;20073;-82
2021/08/28 07:04:16;;;;;;;29.08;23.52;;;;;;;;;;4974584;28;20030;-83
2021/08/28 07:06:42;;;;;;;14.32;7.78;;;;;;;;;;4972074;28;20027;-78
2021/08/28 07:09:08;;;;;;;9.68;5.95;;;;;;;;;;4972489;28;20031;-79
2021/08/28 07:11:34;;;;;;;11.23;6.07;;;;;;;;;;4971535;28;20034;-76
2021/08/28 07:14:00;;;;;;;9.65;5.82;;;;;;;;;;4971108;28;20403;-76
2021/08/28 07:16:26;;;;;;;11.75;4.50;;;;;;;;;;4972495;28;20098;-86
2021/08/28 07:18:53;;;;;;;6.75;3.63;;;;;;;;;;4972429;28;20030;-82
2021/08/28 07:21:19;;;;;;;9.82;3.40;;;;;;;;;;4972820;28;20035;-82
2021/08/28 07:23:46;;;;;;;12.07;4.50;;;;;;;;;;4972660;28;20036;-86
2021/08/28 07:26:13;;;;;;;9.18;3.47;;;;;;;;;;4972771;28;20023;-82
2021/08/28 07:28:39;;;;;;;15.45;3.92;;;;;;;;;;4972979;28;20463;-80
2021/08/28 07:31:05;;;;;;;7.40;2.80;;;;;;;;;;4972977;28;20030;-80
2021/08/28 07:33:31;;;;;;;7.03;3.17;;;;;;;;;;4970494;28;20037;-78
2021/08/28 07:35:57;;;;;;;10.27;2.47;;;;;;;;;;4965055;28;20041;-76
2021/08/28 07:38:23;;;;;;;8.73;3.00;;;;;;;;;;4960994;28;20018;-82
2021/08/28 07:40:49;;;;;;;5.28;2.60;;;;;;;;;;4965490;28;20034;-86
2021/08/28 07:43:15;;;;;;;5.22;3.00;;;;;;;;;;4964700;28;20027;-82
2021/08/28 07:45:42;;;;;;;4.70;2.20;;;;;;;;;;4966960;28;20011;-75
2021/08/28 07:48:08;;;;;;;8.90;2.55;;;;;;;;;;4966747;28;20074;-85
2021/08/28 07:50:35;;;;;;;7.13;2.33;;;;;;;;;;4957796;28;20044;-78
2021/08/28 07:53:01;;;;;;;5.78;2.03;;;;;;;;;;4963574;28;20395;-78
2021/08/28 07:55:27;;;;;;;4.40;2.13;;;;;;;;;;4969527;28;20042;-80
2021/08/28 07:57:53;;;;;;;6.10;2.40;;;;;;;;;;4971291;28;20487;-74
2021/08/28 08:00:20;;;;;;;6.68;2.65;;;;;;;;;;4973407;28;20022;-77
2021/08/28 08:02:46;;;;;;;4.18;2.10;;;;;;;;;;4965020;28;20053;-73
2021/08/28 08:05:12;;;;;;;5.97;2.15;;;;;;;;;;4967483;28;20058;-74
2021/08/28 08:07:38;;;;;;;6.13;2.03;;;;;;;;;;4973930;28;20117;-73
2021/08/28 08:10:05;;;;;;;6.63;2.22;;;;;;;;;;4976822;28;20031;-81
2021/08/28 08:12:31;;;;;;;7.78;2.30;;;;;;;;;;4985713;28;20034;-79
2021/08/28 08:14:57;;;;;;;6.10;2.40;;;;;;;;;;4974879;28;20050;-84
2021/08/28 08:17:23;;;;;;;7.03;2.20;;;;;;;;;;4975062;28;20065;-75
2021/08/28 08:19:49;;;;;;;6.15;2.13;;;;;;;;;;4974694;28;20034;-73
2021/08/28 08:22:16;;;;;;;5.45;2.22;;;;;;;;;;4966869;28;20438;-74
2021/08/28 08:24:42;;;;;;;6.82;2.08;;;;;;;;;;4967101;28;20027;-73
2021/08/28 08:27:08;;;;;;;5.88;2.17;;;;;;;;;;4974671;28;20027;-73
2021/08/28 08:29:35;;;;;;;4.18;1.85;;;;;;;;;;4974719;28;20121;-84
2021/08/28 08:32:01;;;;;;;6.85;2.53;;;;;;;;;;4972805;28;20049;-81
2021/08/28 08:34:27;;;;;;;5.07;1.88;;;;;;;;;;4961893;28;20103;-79
2021/08/28 08:36:53;;;;;;;5.30;1.58;;;;;;;;;;4970532;28;20023;-81
2021/08/28 08:39:19;;;;;;;6.53;2.05;;;;;;;;;;4974104;28;20031;-79
2021/08/28 08:41:47;;;;;;;10.27;2.70;;;;;;;;;;4974494;28;20044;-80
2021/08/28 08:44:13;;;;;;;5.53;1.80;;;;;;;;;;4990614;28;20514;-86
2021/08/28 08:46:40;;;;;;;9.02;2.22;;;;;;;;;;4973731;28;20061;-82
2021/08/28 08:49:07;;;;;;;5.18;2.10;;;;;;;;;;4974076;28;20023;-86
2021/08/28 08:51:36;;;;;;;5.22;1.85;;;;;;;;;;4974582;28;20490;-85
2021/08/28 08:54:03;;;;;;;7.20;2.20;;;;;;;;;;4974014;28;20097;-81
2021/08/28 08:56:29;;;;;;;6.07;1.90;;;;;;;;;;4974355;28;20082;-85
2021/08/28 08:58:55;;;;;;;5.45;2.00;;;;;;;;;;4973972;28;20029;-86
2021/08/28 09:01:21;;;;;;;11.25;1.98;;;;;;;;;;4973141;28;20076;-80
2021/08/28 09:03:47;;;;;;;6.55;1.63;;;24.70;82.60;;;;;;4973084;28;20039;-85
2021/08/28 09:06:13;;;;;;;6.32;1.95;;;21.40;91.00;;;;;;4974298;28;20019;-87
2021/08/28 09:08:39;;;;;;;6.40;2.00;;;;;;;;;;4974097;28;20058;-83
2021/08/28 09:11:19;;;;;;;6.07;1.80;;;;;;;;;;4973824;28;20102;-86
2021/08/28 09:13:45;;;;;;;4.68;2.08;;;;;;;;;;4989098;28;20062;-83
2021/08/28 09:16:11;;;;;;;3.95;2.08;;;;;;;;;;4993327;28;20450;-87
2021/08/28 09:18:50;;;;;;;7.28;2.10;;;;;;;;;;4993691;28;20026;-81
2021/08/28 09:21:20;;;;;;;6.40;1.88;;;;;;;;;;4982125;28;20395;-87
2021/08/28 09:23:46;;;;;;;4.90;1.90;;;;;;;;;;4973718;28;20023;-87
2021/08/28 09:26:26;;;;;;;8.35;2.20;;;;;;;;;;4972571;28;20034;-82
2021/08/28 09:28:56;;;;;;;6.72;2.05;;;;;;;;;;4982020;28;20076;-76
2021/08/28 09:31:41;;;;;;;6.35;1.95;;;;;;;;;;4976987;28;20479;-86
2021/08/28 09:34:13;;;;;;;6.82;2.45;;;;;;;;;;4973883;28;20076;-78
2021/08/28 09:36:39;;;;;;;4.47;1.50;;;;;;;;;;4973439;28;20070;-75
2021/08/28 09:39:05;;;;;;;7.15;2.08;;;21.40;91.20;;;;;;4973386;28;20023;-85
2021/08/28 09:41:32;;;;;;;4.65;1.77;;;21.50;90.80;;;;;;4973463;28;20503;-84
2021/08/28 09:44:07;;;;;;;5.82;2.05;;;21.60;90.90;;;;;;4973114;28;20038;-80
2021/08/28 09:46:33;;;;;;;4.95;1.70;;;21.60;90.90;;;;;;4973389;28;20015;-77
2021/08/28 09:49:00;;;;;;;4.90;2.55;;;21.60;90.80;;;;;;4973229;28;20413;-81
2021/08/28 09:51:32;;;;;;;5.65;2.10;;;21.60;90.80;;;;;;4973343;28;20023;-75
2021/08/28 09:53:59;;;;;;;4.78;1.92;;;21.60;90.80;;;;;;4973035;28;20030;-78
2021/08/28 09:56:29;;;;;;;4.82;1.77;;;21.60;90.70;;;;;;4973051;28;20018;-78
2021/08/28 09:58:54;;;;;;;5.53;1.50;;;21.60;90.70;;;;;;4972677;28;20157;-79
2021/08/28 10:01:22;;;;;;;3.47;1.65;;;21.60;90.70;;;;;;4972057;28;20121;-77
2021/08/28 10:03:58;;;;;;;6.13;1.70;;;21.60;90.70;;;;;;4955197;28;20039;-72
2021/08/28 10:06:25;;;;;;;5.10;1.92;;;21.60;90.70;;;;;;4972834;28;20019;-77
2021/08/28 10:08:51;;;;;;;7.50;1.92;;;21.60;90.70;;;;;;4972480;28;20027;-74
2021/08/28 10:11:18;;;;;;;6.30;1.70;;;21.60;90.70;;;;;;4973079;28;20033;-75
2021/08/28 10:13:46;;;;;;;6.82;1.58;;;21.60;90.70;;;;;;4972130;28;20023;-74
2021/08/28 10:16:13;;;;;;;6.05;2.45;;;21.60;90.70;;;;;;4954998;28;20137;-73
2021/08/28 10:18:40;;;;;;;4.03;1.70;;;21.60;90.70;;;;;;4972542;28;20019;-78
2021/08/28 10:21:10;;;;;;;5.15;1.80;;;21.60;90.70;;;;;;4972311;28;20022;-77
2021/08/28 10:23:39;;;;;;;5.53;1.90;;;21.60;90.70;;;;;;4972522;28;20026;-77
2021/08/28 10:26:10;;;;;;;7.47;2.13;;;21.60;90.70;;;;;;4971193;28;20106;-74
2021/08/28 10:28:39;;;;;;;3.47;1.50;;;21.60;90.70;;;;;;4972717;28;20487;-76
2021/08/28 10:31:06;;;;;;;3.72;1.70;;;21.60;90.70;;;;;;4982186;28;20026;-72
2021/08/28 10:33:31;;;;;;;4.18;1.60;;;21.60;90.70;;;;;;4991648;28;20032;-73
2021/08/28 10:35:58;;;;;;;4.75;1.70;;;21.60;90.70;;;;;;4991170;28;20121;-75
2021/08/28 10:38:24;;;;;;;4.43;1.70;;;21.60;90.80;;;;;;4991721;28;20372;-81
2021/08/28 10:40:54;;;;;;;3.45;1.30;;;21.60;90.80;;;;;;4991412;28;20076;-81
2021/08/28 10:43:21;;;;;;;4.50;1.55;;;21.60;90.70;;;;;;4991950;28;20030;-82
2021/08/28 10:45:47;;;;;;;4.10;1.52;;;21.60;90.70;;;;;;4991220;28;20019;-77
2021/08/28 10:48:14;;;;;;;5.15;1.73;;;21.60;90.60;;;;;;4991362;28;20046;-74
2021/08/28 10:50:41;;;;;;;4.32;1.48;;;21.60;90.70;;;;;;4991611;28;20506;-77
2021/08/28 10:53:09;;;;;;;5.05;1.60;;;21.60;90.70;;;;;;4974228;28;20049;-85
2021/08/28 10:55:44;;;;;;;3.70;1.35;;;21.60;90.70;;;;;;4974624;28;20054;-85
2021/08/28 10:58:18;;;;;;;3.25;1.30;;;21.60;90.70;;;;;;4991395;28;20113;-81
2021/08/28 11:00:45;;;;;;;2.40;1.40;;;21.60;90.70;;;;;;4991377;28;20026;-85
2021/08/28 11:03:32;;;;;;;3.72;1.83;;;21.60;90.70;;;;;;4974116;28;20457;-77
2021/08/28 11:06:16;;;;;;;4.07;1.52;;;21.60;90.70;;;;;;4991108;28;20030;-86
2021/08/28 11:08:50;;;;;;;4.75;2.15;;;21.60;90.70;;;;;;4991309;28;20394;-84
2021/08/28 11:11:35;;;;;;;3.72;1.45;;;21.50;90.70;;;;;;4991364;28;20077;-82
2021/08/28 11:14:12;;;;;;;3.22;1.30;;;21.60;90.70;;;;;;4990791;28;20084;-82
2021/08/28 11:16:44;;;;;;;3.97;2.17;;;21.50;90.70;;;;;;4976526;28;20066;-77
2021/08/28 11:19:12;;;;;;;11.88;6.65;;;21.60;90.80;;;;;;4971435;28;20078;-81
2021/08/28 11:21:48;;;;;;;10.75;6.07;;;21.60;90.90;;;;;;4985565;28;20038;-83
2021/08/28 11:24:31;;;;;;;8.75;4.07;;;21.60;90.90;;;;;;4975145;28;20023;-82
2021/08/28 11:27:02;;;;;;;11.10;4.40;;;21.60;90.90;;;;;;4991920;28;20026;-76
2021/08/28 11:29:47;;;;;;;9.45;3.83;;;21.60;91.40;;;;;;4991047;28;20027;-76
2021/08/28 11:32:17;;;;;;;5.05;2.55;;;21.60;91.30;;;;;;4991633;28;20560;-82
2021/08/28 11:34:45;;;;;;;6.35;2.70;;;21.70;91.10;;;;;;4971950;28;20031;-84
2021/08/28 11:37:29;;;;;;;5.38;2.88;;;21.70;91.30;;;;;;4986677;28;20036;-76
2021/08/28 11:40:00;;;;;;;8.32;2.35;;;21.70;91.70;;;;;;4994460;28;20030;-77
2021/08/28 11:42:27;;;;;;;9.45;2.92;;;21.80;91.50;;;;;;4976412;28;20023;-72
2021/08/28 11:44:56;;;;;;;6.78;2.70;;;21.80;91.80;;;;;;4983830;28;20453;-78
2021/08/28 11:47:22;;;;;;;11.35;2.65;;;21.90;91.50;;;;;;4997675;28;20027;-81
2021/08/28 11:49:56;;;;;;;11.50;3.58;;;;;;;;;;4976864;28;20489;-82
2021/08/28 11:52:22;;;;;;;15.45;3.65;;;;;;;;;;4994599;28;20362;-76
2021/08/28 11:54:48;;;;;;;11.57;2.38;;;;;;;;;;4994524;28;20042;-75
2021/08/28 11:57:20;;;;;;;9.57;2.47;;;;;;;;;;4976830;28;20053;-80
2021/08/28 11:59:46;;;;;;;11.60;3.10;;;;;;;;;;4989316;28;20041;-72
2021/08/28 12:02:12;;;;;;;7.88;2.30;;;;;;;;;;4975853;28;20019;-85
2021/08/28 12:04:38;;;;;;;8.45;2.08;;;;;;;;;;4975805;28;20031;-82
2021/08/28 12:07:05;;;;;;;6.55;2.15;;;;;;;;;;4973234;28;20102;-85
2021/08/28 12:09:32;;;;;;;5.78;1.95;;;;;;;;;;4988816;28;20026;-83
2021/08/28 12:11:58;;;;;;;6.68;2.35;;;;;;;;;;4984083;28;20498;-84
2021/08/28 12:14:25;;;;;;;7.57;2.20;;;;;;;;;;4974856;28;20063;-78
2021/08/28 12:16:51;;;;;;;6.55;2.10;;;;;;;;;;4974332;28;20030;-82
2021/08/28 12:19:19;;;;;;;7.75;2.10;;;;;;;;;;4974846;28;20388;-80
2021/08/28 12:21:47;;;;;;;6.38;1.67;;;21.90;91.30;;;;;;4973249;28;20030;-77
2021/08/28 12:24:26;;;;;;;5.43;1.60;;;22.50;90.90;;;;;;4974917;28;20011;-77
2021/08/28 12:27:00;;;;;;;7.03;1.92;;;22.50;90.30;;;;;;4974587;28;20027;-77
2021/08/28 12:29:27;;;;;;;5.95;1.95;;;22.50;90.50;;;;;;4974727;28;20090;-76
2021/08/28 12:32:12;;;;;;;5.97;1.73;;;22.40;90.40;;;;;;4989630;28;20117;-81
2021/08/28 12:34:41;;;;;;;6.10;1.77;;;22.40;90.40;;;;;;4988021;28;20110;-79
2021/08/28 12:37:09;;;;;;;4.85;1.42;;;22.40;90.30;;;;;;4974516;28;20023;-75
2021/08/28 12:39:37;;;;;;;6.38;1.70;;;22.40;90.40;;;;;;4974794;28;20069;-81
2021/08/28 12:42:05;;;;;;;4.75;1.45;;;22.50;90.50;;;;;;4975609;28;20062;-71
2021/08/28 12:44:31;;;;;;;4.32;1.70;;;22.60;90.70;;;;;;4972780;28;20066;-75
2021/08/28 12:46:58;;;;;;;5.00;1.95;;;;;;;;;;4968305;28;20058;-72
2021/08/28 12:49:25;;;;;;;7.40;1.63;;;;;;;;;;4964060;28;20023;-77
2021/08/28 12:51:56;;;;;;;5.13;1.63;;;;;;;;;;4961786;28;20027;-74
2021/08/28 12:54:27;;;;;;;5.15;1.92;;;;;;;;;;4965056;28;20066;-76
2021/08/28 12:57:01;;;;;;;6.57;1.98;;;;;;;;;;4965206;28;20023;-72
2021/08/28 12:59:26;;;;;;;5.00;2.40;;;22.70;90.90;;;;;;4971578;28;20039;-71
2021/08/28 13:01:54;;;;;;;4.82;1.50;;;22.90;90.80;;;;;;4970476;28;20538;-72
2021/08/28 13:04:28;;;;;;;4.72;1.73;;;22.80;90.80;;;;;;4973632;28;20046;-72
2021/08/28 13:07:14;;;;;;;3.45;1.52;;;22.90;90.80;;;;;;4973695;28;20026;-73
2021/08/28 13:09:48;;;;;;;3.05;1.38;;;22.90;90.90;;;;;;4974109;28;20027;-72
2021/08/28 13:12:14;;;;;;;3.15;1.65;;;;;;;;;;4976114;28;20023;-71
2021/08/28 13:14:54;;;;;;;3.28;1.38;;;22.80;90.90;;;;;;4974656;28;20027;-71
2021/08/28 13:17:27;;;;;;;7.55;1.48;;;22.80;90.80;;;;;;4962863;28;20391;-71
2021/08/28 13:20:07;;;;;;;3.28;1.42;;;22.80;90.40;;;;;;4960948;28;20480;-72
2021/08/28 13:22:39;;;;;;;9.02;1.85;;;22.80;90.70;;;;;;4961803;28;20030;-75
2021/08/28 13:25:17;;;;;;;5.80;1.92;;;22.90;90.70;;;;;;4963068;28;20019;-76
2021/08/28 13:27:43;;;;;;;6.97;1.65;;;22.90;90.90;;;;;;4964041;28;20402;-73
2021/08/28 13:30:13;;;;;;;5.38;1.80;;;22.90;90.80;;;;;;4963441;28;20097;-73
2021/08/28 13:33:04;;;;;;;4.03;1.98;;;22.90;90.80;;;;;;4962670;28;20023;-74
2021/08/28 13:35:39;;;;;;;6.20;1.88;;;22.90;90.70;;;;;;4962926;28;20082;-73
2021/08/28 13:38:10;;;;;;;6.03;1.70;;;22.90;90.80;;;;;;4962307;28;20035;-75
2021/08/28 13:40:36;;;;;;;5.57;1.80;;;22.90;90.70;;;;;;4961757;28;20039;-73
2021/08/28 13:43:02;;;;;;;5.93;2.10;;;23.00;90.60;;;;;;4961700;28;20426;-72
2021/08/28 13:45:28;;;;;;;3.45;1.50;;;23.00;90.50;;;;;;4963393;28;20490;-75
2021/08/28 13:47:54;;;;;;;2.40;1.38;;;23.00;90.40;;;;;;4961006;28;20042;-74
2021/08/28 13:50:21;;;;;;;6.28;1.80;;;23.10;90.40;;;;;;4960846;28;20078;-72
2021/08/28 13:52:48;;;;;;;4.80;1.67;;;23.20;90.20;;;;;;4969605;28;20026;-73
2021/08/28 13:55:15;;;;;;;3.78;1.90;;;23.20;90.20;;;;;;4971409;28;20490;-75
2021/08/28 13:57:42;;;;;;;5.57;2.67;;;23.30;90.10;;;;;;4971648;28;20022;-71
2021/08/28 14:00:09;;;;;;;3.20;1.45;;;23.30;90.00;;;;;;4971590;28;20026;-78
2021/08/28 14:02:35;;;;;;;3.08;1.75;;;23.30;90.00;;;;;;4972714;28;20539;-74
2021/08/28 14:05:02;;;;;;;3.40;1.60;;;23.40;90.00;;;;;;4955072;28;20034;-73
2021/08/28 14:07:29;;;;;;;6.25;1.90;;;23.40;89.70;;;;;;4953091;28;20487;-73
2021/08/28 14:09:58;;;;;;;5.05;1.58;;;23.40;89.50;;;;;;4972084;28;20058;-77
2021/08/28 14:12:25;;;;;;;3.80;1.75;;;23.40;89.30;;;;;;4971119;28;20015;-78